createdAt,value
2022-10-02T00:00:02.515Z,12.11
2022-10-02T00:02:43.179Z,12.07
2022-10-02T00:05:37.693Z,11.97
2022-10-02T00:08:24.039Z,11.99
2022-10-02T00:11:03.620Z,12.00
2022-10-02T00:14:00.419Z,12.00
2022-10-02T00:16:49.917Z,11.98
2022-10-02T00:19:19.133Z,11.98
2022-10-02T00:22:07.364Z,11.89
2022-10-02T00:24:47.145Z,11.87
2022-10-02T00:27:40.498Z,11.83
2022-10-02T00:30:15.229Z,11.80
2022-10-02T00:33:17.092Z,11.79
2022-10-02T00:36:15.514Z,11.77
2022-10-02T00:39:00.594Z,11.70
2022-10-02T00:42:09.340Z,11.55
2022-10-02T00:45:22.994Z,11.50
2022-10-02T00:48:13.981Z,11.52
2022-10-02T00:51:10.089Z,11.41
2022-10-02T00:53:56.680Z,11.38
2022-10-02T00:56:32.310Z,11.34
2022-10-02T00:59:30.550Z,11.37
2022-10-02T01:02:26.656Z,11.38
2022-10-02T01:04:54.109Z,11.37
2022-10-02T01:07:21.392Z,11.36
2022-10-02T01:09:49.010Z,11.31
2022-10-02T01:12:16.888Z,11.33
2022-10-02T01:14:44.124Z,11.28
2022-10-02T01:17:31.485Z,11.29
2022-10-02T01:20:04.157Z,11.21
2022-10-02T01:22:46.489Z,11.12
2022-10-02T01:25:14.152Z,11.09
2022-10-02T01:27:41.853Z,11.04
2022-10-02T01:30:17.447Z,11.02
2022-10-02T01:32:50.480Z,10.98
2022-10-02T01:35:22.192Z,10.93
2022-10-02T01:37:53.385Z,10.88
2022-10-02T01:40:31.445Z,10.84
2022-10-02T01:43:04.742Z,10.83
2022-10-02T01:46:01.754Z,10.78
2022-10-02T01:49:11.703Z,10.70
2022-10-02T01:52:19.427Z,10.61
2022-10-02T01:55:20.320Z,10.56
2022-10-02T01:58:27.805Z,10.54
2022-10-02T02:01:03.807Z,10.50
2022-10-02T02:04:19.597Z,10.43
2022-10-02T02:07:18.087Z,10.41
2022-10-02T02:10:17.753Z,10.39
2022-10-02T02:13:02.996Z,10.34
2022-10-02T02:15:52.413Z,10.25
2022-10-02T02:18:54.270Z,10.20
2022-10-02T02:21:40.824Z,10.19
2022-10-02T02:24:21.456Z,10.19
2022-10-02T02:26:51.097Z,10.17
2022-10-02T02:29:22.311Z,10.15
2022-10-02T02:31:54.585Z,10.12
2022-10-02T02:34:34.125Z,10.11
2022-10-02T02:37:09.511Z,10.07
2022-10-02T02:39:52.694Z,10.10
2022-10-02T02:42:26.371Z,10.10
2022-10-02T02:45:24.171Z,10.06
2022-10-02T02:48:01.344Z,10.04
2022-10-02T02:50:44.744Z,10.04
2022-10-02T02:53:20.317Z,10.02
2022-10-02T02:55:58.562Z,10.01
2022-10-02T02:58:39.865Z,9.99
2022-10-02T03:01:07.296Z,9.95
2022-10-02T03:03:34.723Z,9.93
2022-10-02T03:06:34.040Z,9.93
2022-10-02T03:09:02.455Z,9.90
2022-10-02T03:11:49.791Z,9.88
2022-10-02T03:15:03.442Z,9.82
2022-10-02T03:17:48.752Z,9.78
2022-10-02T03:20:46.268Z,9.80
2022-10-02T03:23:30.585Z,9.80
2022-10-02T03:26:24.578Z,9.77
2022-10-02T03:28:59.821Z,9.73
2022-10-02T03:31:33.478Z,9.69
2022-10-02T03:34:04.209Z,9.68
2022-10-02T03:36:31.910Z,9.66
2022-10-02T03:41:50.091Z,9.55
2022-10-02T03:44:17.198Z,9.53
2022-10-02T03:46:44.411Z,9.54
2022-10-02T03:49:11.667Z,9.52
2022-10-02T03:51:38.792Z,9.51
2022-10-02T03:54:17.790Z,9.49
2022-10-02T03:57:00.910Z,9.50
2022-10-02T04:00:05.795Z,9.53
2022-10-02T04:02:52.460Z,9.52
2022-10-02T04:06:02.164Z,9.55
2022-10-02T04:08:39.534Z,9.53
2022-10-02T04:11:33.530Z,9.52
2022-10-02T04:14:30.350Z,9.52
2022-10-02T04:17:15.878Z,9.50
2022-10-02T04:19:54.864Z,9.52
2022-10-02T04:22:39.630Z,9.51
2022-10-02T04:25:33.509Z,9.50
2022-10-02T04:28:11.758Z,9.48
2022-10-02T04:30:39.041Z,9.47
2022-10-02T04:33:20.289Z,9.46
2022-10-02T04:36:34.457Z,9.44
2022-10-02T04:39:45.848Z,9.37
2022-10-02T04:42:33.958Z,9.36
2022-10-02T04:45:39.182Z,9.27
2022-10-02T04:48:21.109Z,9.25
2022-10-02T04:51:39.853Z,9.24
2022-10-02T04:54:24.615Z,9.21
2022-10-02T04:57:08.572Z,9.20
2022-10-02T04:59:54.491Z,9.22
2022-10-02T05:02:57.433Z,9.20
2022-10-02T05:05:57.927Z,9.21
2022-10-02T05:08:43.984Z,9.17
2022-10-02T05:11:19.869Z,9.16
2022-10-02T05:14:11.126Z,9.14
2022-10-02T05:17:20.040Z,9.11
2022-10-02T05:19:58.810Z,9.10
2022-10-02T05:23:09.654Z,9.11
2022-10-02T05:26:14.478Z,9.10
2022-10-02T05:28:57.123Z,9.12
2022-10-02T05:31:36.160Z,9.15
2022-10-02T05:34:38.566Z,9.16
2022-10-02T05:37:59.416Z,9.20
2022-10-02T05:41:03.812Z,9.23
2022-10-02T05:44:00.377Z,9.28
2022-10-02T05:46:55.901Z,9.38
2022-10-02T05:49:34.278Z,9.41
2022-10-02T05:52:12.853Z,9.49
2022-10-02T05:54:47.235Z,9.52
2022-10-02T05:57:26.473Z,9.55
2022-10-02T06:00:28.772Z,9.61
2022-10-02T06:03:23.040Z,9.64
2022-10-02T06:06:15.253Z,9.71
2022-10-02T06:08:55.719Z,9.78
2022-10-02T06:11:54.523Z,9.80
2022-10-02T06:14:38.753Z,9.79
2022-10-02T06:17:13.267Z,9.84
2022-10-02T06:19:50.288Z,9.87
2022-10-02T06:22:28.670Z,9.93
2022-10-02T06:25:03.820Z,10.00
2022-10-02T06:27:50.146Z,10.05
2022-10-02T06:30:19.289Z,10.11
2022-10-02T06:33:18.129Z,10.19
2022-10-02T06:35:57.056Z,10.25
2022-10-02T06:39:17.331Z,10.30
2022-10-02T06:42:15.438Z,10.34
2022-10-02T06:45:01.676Z,10.41
2022-10-02T06:48:05.148Z,10.52
2022-10-02T06:51:00.600Z,10.65
2022-10-02T06:53:36.684Z,10.81
2022-10-02T06:56:58.015Z,10.92
2022-10-02T06:59:46.376Z,11.02
2022-10-02T07:03:02.953Z,11.10
2022-10-02T07:05:56.926Z,11.15
2022-10-02T07:09:01.084Z,11.24
2022-10-02T07:11:58.384Z,11.32
2022-10-02T07:14:58.094Z,11.42
2022-10-02T07:17:36.989Z,11.51
2022-10-02T07:20:35.668Z,11.63
2022-10-02T07:23:11.743Z,11.65
2022-10-02T07:26:03.187Z,11.74
2022-10-02T07:28:59.124Z,11.80
2022-10-02T07:31:48.640Z,11.83
2022-10-02T07:34:49.285Z,11.86
2022-10-02T07:37:44.263Z,11.93
2022-10-02T07:40:23.257Z,11.97
2022-10-02T07:43:14.109Z,11.99
2022-10-02T07:45:50.445Z,12.03
2022-10-02T07:48:52.250Z,12.11
2022-10-02T07:51:36.392Z,12.17
2022-10-02T07:54:22.053Z,12.25
2022-10-02T07:56:52.376Z,12.28
2022-10-02T07:59:20.822Z,12.35
2022-10-02T08:01:51.603Z,12.44
2022-10-02T08:04:33.367Z,12.49
2022-10-02T08:07:05.095Z,12.57
2022-10-02T08:09:49.949Z,12.68
2022-10-02T08:12:41.625Z,12.73
2022-10-02T08:15:19.196Z,12.76
2022-10-02T08:18:10.826Z,12.88
2022-10-02T08:20:48.986Z,12.99
2022-10-02T08:23:49.802Z,13.06
2022-10-02T08:26:28.178Z,13.10
2022-10-02T08:29:40.615Z,13.21
2022-10-02T08:32:12.582Z,13.30
2022-10-02T08:34:42.063Z,13.39
2022-10-02T08:38:04.941Z,13.52
2022-10-02T08:41:09.122Z,13.57
2022-10-02T08:43:57.280Z,13.68
2022-10-02T08:47:04.214Z,13.77
2022-10-02T08:50:27.359Z,13.90
2022-10-02T08:53:19.803Z,13.88
2022-10-02T08:56:20.127Z,13.96
2022-10-02T08:59:16.637Z,14.04
2022-10-02T09:02:00.059Z,14.02
2022-10-02T09:05:18.758Z,14.10
2022-10-02T09:08:26.432Z,14.15
2022-10-02T09:11:37.148Z,14.22
2022-10-02T09:14:25.772Z,14.23
2022-10-02T09:17:17.083Z,14.26
2022-10-02T09:20:20.295Z,14.27
2022-10-02T09:23:55.120Z,14.32
2022-10-02T09:26:53.949Z,14.39
2022-10-02T09:30:03.773Z,14.46
2022-10-02T09:32:58.464Z,14.53
2022-10-02T09:36:10.323Z,14.60
2022-10-02T09:38:51.050Z,14.61
2022-10-02T09:41:39.113Z,14.66
2022-10-02T09:44:33.281Z,14.68
2022-10-02T09:47:30.684Z,14.70
2022-10-02T09:51:02.190Z,14.75
2022-10-02T09:53:47.254Z,14.80
2022-10-02T09:56:54.933Z,14.83
2022-10-02T09:59:30.805Z,14.90
2022-10-02T10:02:12.951Z,14.99
2022-10-02T10:05:06.361Z,15.16
2022-10-02T10:07:52.244Z,15.35
2022-10-02T10:10:51.489Z,15.52
2022-10-02T10:13:55.253Z,15.65
2022-10-02T10:16:57.059Z,15.77
2022-10-02T10:19:44.843Z,15.88
2022-10-02T10:22:52.130Z,16.01
2022-10-02T10:25:50.930Z,16.11
2022-10-02T10:29:17.229Z,16.21
2022-10-02T10:32:08.599Z,16.30
2022-10-02T10:35:44.934Z,16.48
2022-10-02T10:38:39.880Z,16.63
2022-10-02T10:41:57.720Z,16.93
2022-10-02T10:44:30.942Z,17.21
2022-10-02T10:47:18.612Z,17.31
2022-10-02T10:50:14.218Z,17.32
2022-10-02T10:52:53.231Z,17.33
2022-10-02T10:56:14.044Z,17.44
2022-10-02T10:59:15.413Z,17.51
2022-10-02T11:02:22.524Z,18.13
2022-10-02T11:05:26.909Z,19.22
2022-10-02T11:08:36.376Z,20.71
2022-10-02T11:11:36.070Z,21.51
2022-10-02T11:14:19.606Z,22.05
2022-10-02T11:16:56.121Z,22.42
2022-10-02T11:19:31.914Z,22.88
2022-10-02T11:22:52.425Z,23.76
2022-10-02T11:25:30.357Z,24.36
2022-10-02T11:28:21.866Z,24.73
2022-10-02T11:31:30.336Z,25.28
2022-10-02T11:34:22.469Z,25.63
2022-10-02T11:37:41.222Z,25.59
2022-10-02T11:40:50.483Z,25.57
2022-10-02T11:43:25.980Z,25.87
2022-10-02T11:46:10.944Z,26.30
2022-10-02T11:49:30.564Z,26.20
2022-10-02T11:52:21.394Z,26.07
2022-10-02T11:55:37.721Z,26.02
2022-10-02T11:58:16.686Z,25.99
2022-10-02T12:01:29.388Z,25.46
2022-10-02T12:04:36.939Z,24.72
2022-10-02T12:07:27.752Z,24.27
2022-10-02T12:10:16.550Z,23.70
2022-10-02T12:13:02.735Z,23.00
2022-10-02T12:15:55.057Z,22.69
2022-10-02T12:18:43.283Z,22.19
2022-10-02T12:21:47.840Z,21.83
2022-10-02T12:24:36.122Z,21.60
2022-10-02T12:27:29.715Z,21.65
2022-10-02T12:30:08.476Z,21.76
2022-10-02T12:33:08.897Z,21.89
2022-10-02T12:36:14.159Z,22.01
2022-10-02T12:39:39.685Z,22.14
2022-10-02T12:42:40.731Z,22.37
2022-10-02T12:45:32.053Z,22.59
2022-10-02T12:48:26.844Z,22.81
2022-10-02T12:51:09.017Z,23.00
2022-10-02T12:54:03.787Z,23.13
2022-10-02T12:57:18.273Z,23.35
2022-10-02T13:00:03.554Z,23.57
2022-10-02T13:03:28.537Z,23.46
2022-10-02T13:06:20.433Z,23.29
2022-10-02T13:09:41.764Z,23.04
2022-10-02T13:12:11.917Z,22.82
2022-10-02T13:15:13.761Z,22.59
2022-10-02T13:17:57.896Z,22.31
2022-10-02T13:20:47.625Z,22.10
2022-10-02T13:23:32.662Z,21.86
2022-10-02T13:26:28.613Z,21.56
2022-10-02T13:29:07.756Z,21.26
2022-10-02T13:32:21.359Z,20.99
2022-10-02T13:35:12.344Z,20.72
2022-10-02T13:38:10.296Z,20.48
2022-10-02T13:41:18.280Z,20.28
2022-10-02T13:43:45.778Z,20.15
2022-10-02T13:46:34.782Z,20.10
2022-10-02T13:49:19.029Z,20.04
2022-10-02T13:52:16.954Z,19.99
2022-10-02T13:55:02.850Z,19.89
2022-10-02T13:57:51.211Z,19.81
2022-10-02T14:00:59.044Z,19.65
2022-10-02T14:03:57.843Z,19.58
2022-10-02T14:06:35.643Z,19.54
2022-10-02T14:09:28.783Z,19.47
2022-10-02T14:12:35.648Z,19.41
2022-10-02T14:15:36.369Z,19.37
2022-10-02T14:18:33.694Z,19.32
2022-10-02T14:21:29.269Z,19.27
2022-10-02T14:24:24.124Z,19.18
2022-10-02T14:27:41.737Z,19.08
2022-10-02T14:30:30.139Z,18.97
2022-10-02T14:33:47.075Z,18.87
2022-10-02T14:36:59.976Z,18.81
2022-10-02T14:39:40.825Z,18.76
2022-10-02T14:42:34.846Z,18.76
2022-10-02T14:45:32.072Z,18.72
2022-10-02T14:48:31.320Z,18.67
2022-10-02T14:51:08.436Z,18.66
2022-10-02T14:53:55.916Z,18.66
2022-10-02T14:56:58.522Z,18.67
2022-10-02T14:59:59.970Z,18.67
2022-10-02T15:02:33.615Z,18.62
2022-10-02T15:05:22.580Z,18.65
2022-10-02T15:07:50.466Z,18.67
2022-10-02T15:10:32.677Z,18.66
2022-10-02T15:13:14.157Z,18.59
2022-10-02T15:16:14.434Z,18.53
2022-10-02T15:18:57.171Z,18.51
2022-10-02T15:21:39.559Z,18.52
2022-10-02T15:24:57.565Z,18.50
2022-10-02T15:28:08.161Z,18.48
2022-10-02T15:31:04.367Z,18.38
2022-10-02T15:33:48.258Z,18.34
2022-10-02T15:36:39.610Z,18.30
2022-10-02T15:39:33.439Z,18.28
2022-10-02T15:42:09.785Z,18.25
2022-10-02T15:45:17.468Z,18.22
2022-10-02T15:48:19.741Z,18.13
2022-10-02T15:51:35.470Z,18.05
2022-10-02T15:54:26.872Z,17.91
2022-10-02T15:57:06.007Z,17.87
2022-10-02T15:59:56.572Z,17.80
2022-10-02T16:03:00.151Z,17.71
2022-10-02T16:06:21.545Z,17.62
2022-10-02T16:09:03.265Z,17.55
2022-10-02T16:12:13.070Z,17.51
2022-10-02T16:15:25.320Z,17.46
2022-10-02T16:18:42.254Z,17.37
2022-10-02T16:21:43.483Z,17.31
2022-10-02T16:24:23.789Z,17.26
2022-10-02T16:27:30.384Z,17.18
2022-10-02T16:30:14.467Z,17.03
2022-10-02T16:33:08.567Z,16.94
2022-10-02T16:36:20.621Z,16.86
2022-10-02T16:38:49.005Z,16.80
2022-10-02T16:41:28.501Z,16.75
2022-10-02T16:44:07.951Z,16.70
2022-10-02T16:46:55.277Z,16.64
2022-10-02T16:49:55.807Z,16.60
2022-10-02T16:52:57.990Z,16.53
2022-10-02T16:55:36.356Z,16.42
2022-10-02T16:58:27.802Z,16.31
2022-10-02T17:01:16.458Z,16.25
2022-10-02T17:04:14.044Z,16.16
2022-10-02T17:06:53.398Z,16.07
2022-10-02T17:09:37.844Z,16.00
2022-10-02T17:12:35.316Z,15.93
2022-10-02T17:15:14.459Z,15.81
2022-10-02T17:18:09.145Z,15.73
2022-10-02T17:20:50.865Z,15.64
2022-10-02T17:24:07.831Z,15.56
2022-10-02T17:26:54.909Z,15.44
2022-10-02T17:29:36.487Z,15.39
2022-10-02T17:32:09.841Z,15.34
2022-10-02T17:34:50.312Z,15.28
2022-10-02T17:37:17.391Z,15.20
2022-10-02T17:40:15.289Z,15.10
2022-10-02T17:42:55.974Z,15.07
2022-10-02T17:46:05.941Z,14.98
2022-10-02T17:49:01.415Z,14.89
2022-10-02T17:52:03.625Z,14.87
2022-10-02T17:55:22.127Z,14.80
2022-10-02T17:58:53.462Z,14.73
2022-10-02T18:01:46.171Z,14.63
2022-10-02T18:04:49.616Z,14.53
2022-10-02T18:07:55.207Z,14.50
2022-10-02T18:10:56.234Z,14.49
2022-10-02T18:13:36.586Z,14.46
2022-10-02T18:16:14.833Z,14.43
2022-10-02T18:19:13.160Z,14.42
2022-10-02T18:22:35.969Z,14.37
2022-10-02T18:25:21.992Z,14.29
2022-10-02T18:28:32.481Z,14.26
2022-10-02T18:32:02.875Z,14.20
2022-10-02T18:35:12.317Z,14.17
2022-10-02T18:37:42.218Z,14.17
2022-10-02T18:41:00.990Z,14.15
2022-10-02T18:43:55.417Z,14.11
2022-10-02T18:47:11.838Z,14.10
2022-10-02T18:50:07.343Z,14.04
2022-10-02T18:52:45.766Z,14.04
2022-10-02T18:55:45.200Z,14.04
2022-10-02T18:58:51.821Z,14.02
2022-10-02T19:01:28.416Z,14.03
2022-10-02T19:04:34.855Z,14.07
2022-10-02T19:07:50.712Z,14.05
2022-10-02T19:10:30.821Z,14.04
2022-10-02T19:13:20.705Z,14.07
2022-10-02T19:15:54.656Z,14.05
2022-10-02T19:18:31.283Z,14.06
2022-10-02T19:21:28.106Z,14.03
2022-10-02T19:24:12.284Z,14.04
2022-10-02T19:26:47.687Z,14.01
2022-10-02T19:29:40.192Z,14.05
2022-10-02T19:32:29.201Z,14.04
2022-10-02T19:35:14.525Z,13.99
2022-10-02T19:37:46.194Z,13.98
2022-10-02T19:40:33.216Z,13.95
2022-10-02T19:43:30.646Z,13.94
2022-10-02T19:46:06.031Z,13.96
2022-10-02T19:48:40.470Z,13.93
2022-10-02T19:51:18.208Z,13.96
2022-10-02T19:54:03.844Z,13.95
2022-10-02T19:56:45.597Z,13.96
2022-10-02T19:59:32.273Z,13.95
2022-10-02T20:02:14.072Z,13.99
2022-10-02T20:04:46.434Z,13.95
2022-10-02T20:07:23.040Z,13.95
2022-10-02T20:10:00.683Z,13.91
2022-10-02T20:12:37.148Z,13.92
2022-10-02T20:15:14.118Z,13.95
2022-10-02T20:17:42.215Z,13.93
2022-10-02T20:20:15.854Z,13.91
2022-10-02T20:22:56.885Z,13.91
2022-10-02T20:25:42.593Z,13.92
2022-10-02T20:28:34.680Z,13.90
2022-10-02T20:31:12.976Z,13.90
2022-10-02T20:33:50.440Z,13.88
2022-10-02T20:36:25.971Z,13.89
2022-10-02T20:39:14.242Z,13.91
2022-10-02T20:41:59.136Z,13.89
2022-10-02T20:44:30.003Z,13.85
2022-10-02T20:47:43.644Z,13.77
2022-10-02T20:50:45.978Z,13.79
2022-10-02T20:53:51.092Z,13.80
2022-10-02T20:56:58.965Z,13.84
2022-10-02T21:00:12.792Z,13.84
2022-10-02T21:03:36.012Z,13.80
2022-10-02T21:06:20.557Z,13.81
2022-10-02T21:09:11.875Z,13.81
2022-10-02T21:12:40.389Z,13.85
2022-10-02T21:15:33.355Z,13.90
2022-10-02T21:18:40.100Z,13.87
2022-10-02T21:21:40.474Z,13.82
2022-10-02T21:25:07.331Z,13.83
2022-10-02T21:28:26.434Z,13.81
2022-10-02T21:31:41.355Z,13.79
2022-10-02T21:34:33.035Z,13.75
2022-10-02T21:37:36.287Z,13.75
2022-10-02T21:40:51.066Z,13.72
2022-10-02T21:43:45.999Z,13.67
2022-10-02T21:46:59.330Z,13.63
2022-10-02T21:49:32.419Z,13.58
2022-10-02T21:52:53.506Z,13.54
2022-10-02T21:55:29.639Z,13.52
2022-10-02T21:58:46.032Z,13.51
2022-10-02T22:01:38.809Z,13.45
2022-10-02T22:04:24.526Z,13.37
2022-10-02T22:07:05.737Z,13.39
2022-10-02T22:10:03.973Z,13.33
2022-10-02T22:12:37.066Z,13.30
2022-10-02T22:15:38.468Z,13.29
2022-10-02T22:18:59.735Z,13.23
2022-10-02T22:21:56.823Z,13.20
2022-10-02T22:25:01.325Z,13.17
2022-10-02T22:28:05.382Z,13.15
2022-10-02T22:31:08.080Z,13.11
2022-10-02T22:34:13.343Z,13.08
2022-10-02T22:37:08.294Z,13.06
2022-10-02T22:40:02.043Z,13.04
2022-10-02T22:42:46.004Z,13.00
2022-10-02T22:45:29.148Z,13.00
2022-10-02T22:48:33.943Z,12.96
2022-10-02T22:51:44.057Z,12.90
2022-10-02T22:54:28.082Z,12.87
2022-10-02T22:57:14.508Z,12.84
2022-10-02T23:00:17.058Z,12.81
2022-10-02T23:03:15.049Z,12.77
2022-10-02T23:06:12.757Z,12.77
2022-10-02T23:09:03.227Z,12.75
2022-10-02T23:11:49.683Z,12.77
2022-10-02T23:15:02.604Z,12.74
2022-10-02T23:17:59.442Z,12.71
2022-10-02T23:20:48.246Z,12.79
2022-10-02T23:23:23.176Z,12.84
2022-10-02T23:26:01.725Z,12.89
2022-10-02T23:28:58.216Z,12.89
2022-10-02T23:31:41.259Z,12.93
2022-10-02T23:34:23.803Z,12.97
2022-10-02T23:37:15.460Z,13.02
2022-10-02T23:39:56.796Z,13.01
2022-10-02T23:42:34.288Z,13.07
2022-10-02T23:45:38.853Z,13.10
2022-10-02T23:48:14.976Z,12.95
2022-10-02T23:51:24.049Z,13.01
2022-10-02T23:54:10.263Z,12.87
2022-10-02T23:57:21.823Z,12.90
2022-10-02T23:59:51.724Z,12.98
